createdAt,value
2022-12-20T00:00:02.553Z,40.08
2022-12-20T00:01:12.555Z,38.97
2022-12-20T00:02:15.528Z,43.05
2022-12-20T00:03:18.588Z,44.67
2022-12-20T00:04:21.217Z,46.90
2022-12-20T00:05:23.847Z,38.60
2022-12-20T00:06:26.875Z,37.47
2022-12-20T00:07:29.602Z,39.42
2022-12-20T00:08:32.827Z,37.45
2022-12-20T00:09:35.669Z,44.90
2022-12-20T00:10:39.585Z,37.65
2022-12-20T00:11:42.743Z,42.53
2022-12-20T00:12:45.359Z,35.45
2022-12-20T00:13:48.203Z,39.55
2022-12-20T00:14:50.837Z,36.47
2022-12-20T00:16:15.274Z,33.47
2022-12-20T00:17:17.942Z,32.83
2022-12-20T00:18:20.595Z,38.40
2022-12-20T00:19:23.237Z,39.83
2022-12-20T00:20:26.906Z,42.75
2022-12-20T00:21:30.820Z,31.80
2022-12-20T00:22:33.589Z,32.90
2022-12-20T00:23:37.438Z,35.95
2022-12-20T00:24:40.101Z,36.53
2022-12-20T00:25:42.725Z,36.60
2022-12-20T00:26:45.393Z,38.70
2022-12-20T00:27:49.218Z,33.00
2022-12-20T00:28:52.484Z,32.97
2022-12-20T00:29:55.429Z,38.58
2022-12-20T00:30:58.153Z,40.20
2022-12-20T00:32:00.875Z,36.67
2022-12-20T00:33:03.588Z,44.13
2022-12-20T00:34:06.379Z,43.17
2022-12-20T00:35:09.391Z,39.67
2022-12-20T00:36:12.423Z,36.55
2022-12-20T00:37:15.504Z,43.33
2022-12-20T00:38:18.163Z,41.75
2022-12-20T00:39:20.835Z,37.25
2022-12-20T00:40:23.583Z,38.83
2022-12-20T00:41:31.400Z,35.72
2022-12-20T00:42:34.247Z,35.38
2022-12-20T00:43:37.755Z,36.83
2022-12-20T00:44:40.879Z,37.30
2022-12-20T00:45:43.671Z,39.35
2022-12-20T00:46:46.472Z,28.73
2022-12-20T00:47:49.260Z,40.25
2022-12-20T00:48:52.349Z,36.90
2022-12-20T00:49:55.067Z,42.72
2022-12-20T00:51:03.177Z,37.05
2022-12-20T00:52:05.840Z,41.17
2022-12-20T00:53:10.579Z,36.85
2022-12-20T00:54:13.206Z,38.95
2022-12-20T00:55:16.121Z,31.10
2022-12-20T00:56:19.203Z,33.08
2022-12-20T00:57:21.821Z,34.03
2022-12-20T00:58:25.084Z,41.85
2022-12-20T00:59:27.916Z,41.65
2022-12-20T01:00:31.567Z,34.45
2022-12-20T01:01:37.306Z,40.53
2022-12-20T01:02:40.283Z,39.40
2022-12-20T01:03:43.249Z,34.20
2022-12-20T01:04:46.159Z,32.75
2022-12-20T01:05:52.927Z,31.90
2022-12-20T01:06:55.667Z,33.35
2022-12-20T01:07:59.588Z,34.30
2022-12-20T01:09:02.412Z,37.83
2022-12-20T01:10:05.457Z,43.13
2022-12-20T01:11:09.697Z,36.80
2022-12-20T01:12:12.540Z,40.08
2022-12-20T01:13:15.252Z,40.45
2022-12-20T01:14:18.050Z,35.80
2022-12-20T01:15:21.287Z,42.70
2022-12-20T01:16:30.826Z,39.63
2022-12-20T01:17:33.697Z,33.30
2022-12-20T01:18:36.871Z,34.15
2022-12-20T01:19:40.549Z,34.05
2022-12-20T01:20:43.781Z,40.15
2022-12-20T01:21:46.814Z,34.38
2022-12-20T01:22:49.647Z,36.03
2022-12-20T01:23:52.588Z,43.40
2022-12-20T01:24:55.388Z,31.55
2022-12-20T01:26:00.266Z,34.38
2022-12-20T01:27:03.129Z,36.97
2022-12-20T01:28:05.847Z,30.90
2022-12-20T01:29:08.578Z,34.95
2022-12-20T01:30:12.065Z,30.48
2022-12-20T01:31:19.231Z,28.60
2022-12-20T01:32:21.959Z,31.92
2022-12-20T01:33:24.686Z,38.58
2022-12-20T01:34:27.323Z,31.58
2022-12-20T01:35:30.055Z,32.53
2022-12-20T01:36:34.909Z,32.97
2022-12-20T01:37:37.734Z,27.95
2022-12-20T01:38:40.580Z,36.00
2022-12-20T01:39:43.241Z,32.67
2022-12-20T01:40:46.016Z,29.92
2022-12-20T01:41:49.094Z,29.15
2022-12-20T01:42:51.842Z,33.00
2022-12-20T01:44:00.311Z,31.50
2022-12-20T01:45:03.809Z,32.38
2022-12-20T01:46:06.787Z,32.03
2022-12-20T01:47:10.387Z,33.58
2022-12-20T01:48:17.132Z,29.55
2022-12-20T01:49:25.128Z,37.90
2022-12-20T01:50:28.619Z,31.30
2022-12-20T01:51:33.061Z,31.48
2022-12-20T01:52:43.691Z,35.17
2022-12-20T01:53:47.897Z,29.10
2022-12-20T01:55:12.692Z,36.03
2022-12-20T01:56:15.555Z,27.25
2022-12-20T01:57:39.249Z,33.28
2022-12-20T01:58:42.522Z,35.10
2022-12-20T01:59:47.016Z,30.90
2022-12-20T02:00:49.923Z,33.63
2022-12-20T02:01:53.037Z,31.02
2022-12-20T02:02:56.376Z,31.95
2022-12-20T02:03:59.399Z,38.20
2022-12-20T02:05:02.621Z,30.70
2022-12-20T02:06:18.280Z,32.28
2022-12-20T02:07:25.221Z,30.73
2022-12-20T02:08:28.057Z,29.50
2022-12-20T02:09:32.240Z,35.03
2022-12-20T02:11:09.842Z,32.80
2022-12-20T02:12:16.142Z,35.55
2022-12-20T02:13:39.158Z,31.63
2022-12-20T02:15:05.603Z,27.92
2022-12-20T02:16:08.727Z,27.83
2022-12-20T02:17:35.613Z,30.05
2022-12-20T02:18:57.977Z,26.13
2022-12-20T02:20:35.939Z,30.55
2022-12-20T02:21:43.781Z,26.80
2022-12-20T02:22:58.024Z,30.58
2022-12-20T02:24:31.380Z,29.88
2022-12-20T02:26:11.152Z,32.83
2022-12-20T02:27:58.281Z,31.88
2022-12-20T02:29:18.581Z,30.73
2022-12-20T02:30:23.446Z,31.38
2022-12-20T02:31:30.242Z,26.88
2022-12-20T02:32:39.379Z,31.02
2022-12-20T02:33:43.940Z,30.17
2022-12-20T02:34:47.336Z,33.70
2022-12-20T02:35:50.008Z,32.00
2022-12-20T02:36:53.099Z,33.60
2022-12-20T02:37:58.663Z,28.48
2022-12-20T02:39:01.747Z,31.05
2022-12-20T02:40:05.459Z,29.88
2022-12-20T02:41:11.085Z,27.42
2022-12-20T02:42:16.614Z,29.55
2022-12-20T02:43:37.877Z,38.28
2022-12-20T02:45:05.034Z,28.98
2022-12-20T02:46:07.993Z,27.63
2022-12-20T02:47:14.678Z,33.40
2022-12-20T02:48:18.210Z,29.13
2022-12-20T02:49:24.393Z,31.10
2022-12-20T02:50:31.954Z,31.25
2022-12-20T02:51:35.205Z,28.48
2022-12-20T02:52:39.371Z,30.85
2022-12-20T02:53:43.905Z,32.50
2022-12-20T02:54:49.512Z,28.75
2022-12-20T02:56:06.015Z,30.38
2022-12-20T02:57:43.502Z,30.30
2022-12-20T02:58:53.625Z,29.63
2022-12-20T03:00:07.181Z,30.42
2022-12-20T03:01:20.431Z,26.95
2022-12-20T03:02:24.696Z,31.52
2022-12-20T03:03:27.558Z,27.48
2022-12-20T03:04:31.491Z,33.58
2022-12-20T03:05:36.721Z,27.00
2022-12-20T03:06:40.291Z,29.48
2022-12-20T03:07:43.013Z,27.27
2022-12-20T03:08:46.752Z,31.95
2022-12-20T03:09:49.513Z,31.85
2022-12-20T03:10:54.590Z,29.58
2022-12-20T03:11:58.187Z,26.85
2022-12-20T03:13:00.905Z,29.38
2022-12-20T03:14:05.435Z,22.30
2022-12-20T03:15:09.442Z,32.20
2022-12-20T03:16:12.240Z,33.17
2022-12-20T03:17:15.053Z,36.03
2022-12-20T03:18:18.189Z,26.48
2022-12-20T03:19:21.219Z,30.08
2022-12-20T03:20:25.375Z,30.50
2022-12-20T03:21:28.241Z,29.05
2022-12-20T03:22:31.682Z,28.42
2022-12-20T03:23:34.768Z,28.75
2022-12-20T03:24:37.619Z,30.00
2022-12-20T03:25:46.523Z,27.25
2022-12-20T03:26:57.128Z,29.02
2022-12-20T03:28:00.839Z,29.02
2022-12-20T03:29:05.007Z,28.65
2022-12-20T03:30:08.519Z,32.25
2022-12-20T03:31:13.346Z,31.00
2022-12-20T03:32:22.176Z,29.77
2022-12-20T03:33:25.592Z,27.40
2022-12-20T03:34:28.481Z,25.77
2022-12-20T03:35:31.300Z,29.45
2022-12-20T03:36:34.694Z,24.02
2022-12-20T03:37:39.915Z,23.90
2022-12-20T03:38:43.245Z,27.48
2022-12-20T03:39:45.962Z,31.83
2022-12-20T03:40:48.675Z,33.00
2022-12-20T03:41:55.371Z,29.08
2022-12-20T03:42:58.118Z,28.85
2022-12-20T03:44:00.898Z,23.90
2022-12-20T03:45:04.540Z,24.52
2022-12-20T03:46:07.523Z,29.15
2022-12-20T03:47:14.184Z,28.50
2022-12-20T03:48:16.907Z,28.92
2022-12-20T03:49:19.576Z,27.83
2022-12-20T03:50:25.646Z,27.02
2022-12-20T03:51:28.336Z,28.65
2022-12-20T03:52:31.101Z,28.73
2022-12-20T03:53:34.198Z,27.52
2022-12-20T03:54:36.915Z,29.35
2022-12-20T03:55:46.961Z,26.02
2022-12-20T03:56:51.249Z,27.67
2022-12-20T03:57:54.186Z,28.40
2022-12-20T03:59:04.426Z,24.75
2022-12-20T04:00:08.079Z,29.48
2022-12-20T04:01:21.595Z,26.75
2022-12-20T04:02:25.361Z,27.10
2022-12-20T04:03:29.284Z,31.67
2022-12-20T04:04:32.356Z,30.05
2022-12-20T04:05:35.166Z,22.50
2022-12-20T04:06:37.927Z,29.50
2022-12-20T04:07:40.707Z,26.33
2022-12-20T04:08:43.490Z,22.58
2022-12-20T04:09:47.280Z,27.27
2022-12-20T04:11:10.623Z,28.42
2022-12-20T04:12:14.683Z,29.90
2022-12-20T04:13:17.337Z,27.02
2022-12-20T04:14:19.993Z,31.67
2022-12-20T04:15:22.665Z,27.63
2022-12-20T04:16:28.135Z,29.70
2022-12-20T04:17:31.502Z,27.70
2022-12-20T04:18:34.653Z,30.17
2022-12-20T04:19:37.568Z,28.58
2022-12-20T04:20:41.204Z,28.52
2022-12-20T04:21:52.711Z,27.42
2022-12-20T04:22:56.150Z,27.88
2022-12-20T04:24:00.647Z,27.73
2022-12-20T04:25:13.230Z,27.42
2022-12-20T04:26:16.076Z,30.02
2022-12-20T04:27:19.223Z,31.15
2022-12-20T04:28:22.252Z,24.88
2022-12-20T04:29:27.068Z,29.25
2022-12-20T04:30:30.219Z,29.95
2022-12-20T04:31:33.547Z,27.88
2022-12-20T04:32:36.650Z,30.65
2022-12-20T04:33:39.761Z,32.05
2022-12-20T04:34:42.816Z,26.40
2022-12-20T04:35:45.946Z,27.30
2022-12-20T04:36:48.800Z,28.60
2022-12-20T04:38:00.046Z,30.98
2022-12-20T04:39:02.907Z,31.38
2022-12-20T04:40:13.978Z,24.27
2022-12-20T04:41:23.196Z,25.92
2022-12-20T04:42:31.771Z,30.23
2022-12-20T04:43:34.543Z,29.67
2022-12-20T04:44:39.820Z,31.55
2022-12-20T04:45:44.293Z,30.33
2022-12-20T04:46:47.120Z,32.88
2022-12-20T04:47:51.957Z,24.55
2022-12-20T04:49:00.755Z,29.23
2022-12-20T04:50:08.360Z,27.02
2022-12-20T04:51:11.140Z,29.48
2022-12-20T04:52:32.503Z,33.22
2022-12-20T04:53:50.157Z,26.17
2022-12-20T04:55:05.939Z,24.05
2022-12-20T04:56:10.768Z,33.35
2022-12-20T04:57:14.289Z,31.85
2022-12-20T04:58:17.015Z,31.30
2022-12-20T04:59:20.416Z,25.60
2022-12-20T05:00:25.849Z,28.85
2022-12-20T05:01:36.350Z,31.25
2022-12-20T05:02:39.756Z,32.28
2022-12-20T05:03:46.940Z,29.90
2022-12-20T05:04:50.173Z,28.27
2022-12-20T05:05:53.703Z,30.08
2022-12-20T05:06:56.898Z,25.70
2022-12-20T05:08:00.293Z,27.75
2022-12-20T05:09:04.499Z,30.05
2022-12-20T05:10:09.345Z,25.27
2022-12-20T05:11:12.470Z,28.92
2022-12-20T05:12:15.402Z,25.95
2022-12-20T05:13:18.101Z,28.58
2022-12-20T05:14:22.376Z,31.27
2022-12-20T05:15:25.191Z,28.92
2022-12-20T05:16:28.342Z,27.05
2022-12-20T05:17:31.571Z,27.98
2022-12-20T05:18:36.145Z,28.85
2022-12-20T05:19:42.080Z,28.73
2022-12-20T05:20:44.983Z,27.27
2022-12-20T05:22:06.182Z,29.65
2022-12-20T05:23:30.342Z,23.85
2022-12-20T05:25:02.949Z,26.08
2022-12-20T05:26:18.165Z,24.52
2022-12-20T05:27:21.191Z,28.23
2022-12-20T05:28:24.741Z,23.05
2022-12-20T05:29:27.971Z,28.35
2022-12-20T05:30:31.242Z,28.23
2022-12-20T05:31:34.288Z,25.17
2022-12-20T05:32:37.915Z,31.60
2022-12-20T05:33:40.691Z,23.77
2022-12-20T05:34:44.019Z,25.88
2022-12-20T05:35:46.893Z,29.75
2022-12-20T05:36:50.801Z,25.67
2022-12-20T05:37:54.523Z,32.22
2022-12-20T05:39:03.647Z,26.92
2022-12-20T05:41:11.826Z,27.85
2022-12-20T05:42:14.855Z,31.90
2022-12-20T05:43:18.464Z,28.17
2022-12-20T05:44:22.291Z,25.60
2022-12-20T05:45:28.559Z,27.75
2022-12-20T05:46:37.717Z,31.52
2022-12-20T05:47:46.097Z,29.65
2022-12-20T05:48:49.250Z,29.65
2022-12-20T05:49:52.435Z,30.90
2022-12-20T05:50:55.679Z,25.25
2022-12-20T05:52:03.066Z,29.58
2022-12-20T05:53:11.225Z,24.98
2022-12-20T05:54:18.578Z,29.15
2022-12-20T05:55:28.161Z,29.58
2022-12-20T05:56:30.973Z,30.25
2022-12-20T05:57:33.704Z,29.23
2022-12-20T05:58:36.384Z,27.92
2022-12-20T05:59:41.476Z,33.05
2022-12-20T06:00:51.562Z,29.35
2022-12-20T06:01:54.958Z,29.60
2022-12-20T06:02:59.827Z,24.58
2022-12-20T06:04:02.897Z,35.33
2022-12-20T06:05:06.296Z,30.55
2022-12-20T06:06:13.871Z,34.30
2022-12-20T06:07:17.073Z,31.83
2022-12-20T06:08:23.817Z,25.08
2022-12-20T06:09:28.030Z,25.73
2022-12-20T06:10:36.971Z,25.90
2022-12-20T06:11:39.832Z,26.88
2022-12-20T06:12:47.852Z,26.05
2022-12-20T06:13:51.991Z,28.70
2022-12-20T06:14:55.357Z,23.95
2022-12-20T06:15:58.069Z,24.83
2022-12-20T06:17:03.114Z,26.13
2022-12-20T06:18:07.498Z,31.88
2022-12-20T06:19:13.559Z,28.40
2022-12-20T06:20:20.589Z,24.55
2022-12-20T06:21:25.019Z,31.15
2022-12-20T06:22:29.808Z,32.10
2022-12-20T06:23:34.308Z,30.58
2022-12-20T06:24:48.197Z,32.63
2022-12-20T06:25:52.543Z,31.33
2022-12-20T06:26:56.907Z,25.88
2022-12-20T06:28:01.719Z,29.73
2022-12-20T06:29:10.457Z,29.77
2022-12-20T06:30:18.190Z,29.92
2022-12-20T06:31:34.958Z,28.25
2022-12-20T06:32:38.721Z,25.08
2022-12-20T06:33:42.683Z,34.08
2022-12-20T06:34:46.498Z,25.85
2022-12-20T06:35:52.772Z,27.85
2022-12-20T06:36:57.946Z,32.10
2022-12-20T06:38:03.885Z,29.40
2022-12-20T06:39:10.200Z,31.00
2022-12-20T06:40:20.198Z,27.58
2022-12-20T06:41:23.021Z,29.80
2022-12-20T06:42:26.910Z,26.10
2022-12-20T06:43:29.593Z,27.25
2022-12-20T06:44:32.528Z,26.23
2022-12-20T06:45:41.161Z,26.83
2022-12-20T06:46:45.155Z,27.67
2022-12-20T06:47:47.919Z,24.02
2022-12-20T06:48:50.571Z,27.98
2022-12-20T06:49:53.777Z,29.25
2022-12-20T06:50:58.780Z,25.23
2022-12-20T06:52:03.380Z,32.97
2022-12-20T06:53:17.908Z,25.65
2022-12-20T06:54:20.691Z,28.33
2022-12-20T06:55:23.367Z,30.90
2022-12-20T06:56:27.412Z,33.80
2022-12-20T06:57:30.095Z,30.17
2022-12-20T06:58:33.033Z,32.13
2022-12-20T06:59:35.726Z,26.05
2022-12-20T07:00:38.463Z,29.77
2022-12-20T07:01:41.322Z,31.45
2022-12-20T07:02:45.511Z,29.63
2022-12-20T07:03:48.280Z,25.40
2022-12-20T07:04:51.167Z,27.27
2022-12-20T07:05:55.513Z,28.50
2022-12-20T07:06:58.284Z,28.13
2022-12-20T07:08:02.823Z,30.02
2022-12-20T07:09:05.616Z,28.55
2022-12-20T07:10:09.024Z,27.98
2022-12-20T07:11:11.975Z,28.80
2022-12-20T07:12:14.694Z,23.65
2022-12-20T07:13:17.338Z,29.02
2022-12-20T07:14:20.131Z,30.13
2022-12-20T07:15:23.153Z,30.77
2022-12-20T07:16:25.929Z,32.53
2022-12-20T07:17:28.738Z,25.92
2022-12-20T07:18:31.548Z,34.63
2022-12-20T07:19:36.290Z,35.15
2022-12-20T07:20:40.650Z,31.63
2022-12-20T07:21:43.666Z,28.38
2022-12-20T07:22:48.980Z,31.98
2022-12-20T07:23:51.659Z,25.00
2022-12-20T07:24:54.368Z,28.60
2022-12-20T07:25:58.822Z,32.35
2022-12-20T07:27:02.124Z,34.83
2022-12-20T07:28:05.119Z,33.35
2022-12-20T07:29:13.397Z,30.88
2022-12-20T07:30:19.229Z,31.17
2022-12-20T07:31:22.036Z,31.15
2022-12-20T07:32:24.945Z,29.45
2022-12-20T07:33:29.504Z,31.92
2022-12-20T07:34:32.213Z,31.10
2022-12-20T07:35:35.233Z,26.35
2022-12-20T07:36:38.064Z,31.08
2022-12-20T07:37:41.302Z,38.03
2022-12-20T07:38:44.059Z,29.70
2022-12-20T07:39:46.708Z,33.50
2022-12-20T07:40:49.441Z,28.23
2022-12-20T07:41:55.551Z,34.08
2022-12-20T07:42:58.747Z,28.83
2022-12-20T07:44:01.466Z,32.83
2022-12-20T07:45:04.356Z,32.75
2022-12-20T07:46:11.961Z,30.70
2022-12-20T07:47:14.804Z,40.80
2022-12-20T07:48:21.571Z,29.42
2022-12-20T07:49:24.847Z,27.17
2022-12-20T07:50:28.695Z,34.88
2022-12-20T07:51:44.796Z,34.72
2022-12-20T07:52:49.578Z,30.58
2022-12-20T07:54:00.971Z,34.55
2022-12-20T07:55:06.245Z,27.27
2022-12-20T07:56:09.885Z,27.17
2022-12-20T07:57:24.128Z,28.83
2022-12-20T07:58:27.635Z,31.92
2022-12-20T07:59:41.965Z,31.80
2022-12-20T08:00:45.348Z,33.70
2022-12-20T08:01:48.539Z,26.23
2022-12-20T08:02:55.612Z,36.00
2022-12-20T08:04:06.127Z,33.13
2022-12-20T08:05:09.921Z,32.17
2022-12-20T08:06:13.180Z,28.73
2022-12-20T08:07:15.864Z,28.95
2022-12-20T08:08:19.206Z,30.33
2022-12-20T08:09:23.408Z,28.42
2022-12-20T08:10:26.783Z,32.58
2022-12-20T08:11:31.512Z,29.48
2022-12-20T08:12:34.181Z,28.77
2022-12-20T08:13:42.482Z,30.98
2022-12-20T08:14:48.603Z,31.90
2022-12-20T08:15:51.354Z,31.52
2022-12-20T08:16:54.182Z,31.95
2022-12-20T08:17:57.385Z,30.67
2022-12-20T08:19:00.124Z,26.90
2022-12-20T08:20:03.669Z,32.80
2022-12-20T08:21:06.341Z,27.05
2022-12-20T08:22:09.055Z,29.13
2022-12-20T08:23:11.689Z,29.30
2022-12-20T08:24:14.355Z,30.00
2022-12-20T08:25:17.270Z,32.40
2022-12-20T08:26:20.102Z,28.55
2022-12-20T08:27:22.893Z,25.17
2022-12-20T08:28:25.556Z,27.08
2022-12-20T08:29:28.365Z,27.30
2022-12-20T08:30:31.168Z,31.00
2022-12-20T08:31:34.002Z,28.85
2022-12-20T08:32:37.654Z,32.13
2022-12-20T08:33:40.981Z,29.92
2022-12-20T08:34:43.735Z,31.95
2022-12-20T08:35:46.526Z,29.90
2022-12-20T08:36:49.772Z,28.60
2022-12-20T08:37:53.004Z,26.10
2022-12-20T08:38:55.736Z,31.35
2022-12-20T08:39:58.501Z,29.40
2022-12-20T08:41:05.734Z,33.05
2022-12-20T08:42:08.405Z,27.98
2022-12-20T08:43:11.403Z,30.00
2022-12-20T08:44:14.133Z,35.85
2022-12-20T08:45:16.935Z,37.38
2022-12-20T08:46:19.731Z,31.38
2022-12-20T08:47:22.572Z,33.55
2022-12-20T08:48:27.968Z,34.30
2022-12-20T08:49:30.701Z,36.92
2022-12-20T08:50:33.412Z,32.72
2022-12-20T08:51:36.277Z,30.90
2022-12-20T08:52:39.105Z,29.77
2022-12-20T08:53:41.997Z,30.33
2022-12-20T08:54:44.742Z,29.48
2022-12-20T08:55:47.451Z,34.50
2022-12-20T08:56:50.152Z,31.98
2022-12-20T08:57:52.878Z,27.35
2022-12-20T08:58:55.768Z,30.98
2022-12-20T08:59:58.480Z,40.22
2022-12-20T09:01:06.473Z,30.73
2022-12-20T09:02:09.645Z,29.10
2022-12-20T09:03:14.155Z,30.17
2022-12-20T09:04:17.491Z,30.75
2022-12-20T09:05:20.315Z,33.15
2022-12-20T09:06:23.992Z,27.83
2022-12-20T09:07:27.177Z,29.65
2022-12-20T09:08:30.220Z,30.48
2022-12-20T09:09:33.024Z,33.50
2022-12-20T09:10:35.661Z,26.77
2022-12-20T09:11:38.278Z,32.20
2022-12-20T09:12:41.100Z,27.83
2022-12-20T09:13:45.086Z,31.88
2022-12-20T09:14:47.696Z,30.65
2022-12-20T09:15:50.496Z,32.58
2022-12-20T09:16:53.300Z,28.25
2022-12-20T09:17:55.941Z,28.15
2022-12-20T09:19:05.116Z,32.42
2022-12-20T09:20:09.159Z,26.70
2022-12-20T09:21:12.139Z,30.08
2022-12-20T09:22:14.843Z,26.45
2022-12-20T09:23:17.635Z,30.98
2022-12-20T09:24:20.449Z,30.48
2022-12-20T09:25:23.213Z,29.30
2022-12-20T09:26:26.540Z,26.42
2022-12-20T09:27:29.276Z,30.38
2022-12-20T09:28:32.988Z,33.05
2022-12-20T09:29:36.094Z,34.95
2022-12-20T09:30:39.403Z,27.02
2022-12-20T09:31:42.336Z,27.73
2022-12-20T09:32:46.675Z,29.27
2022-12-20T09:33:50.098Z,30.42
2022-12-20T09:34:52.962Z,31.17
2022-12-20T09:35:56.032Z,30.60
2022-12-20T09:36:58.844Z,31.25
2022-12-20T09:38:01.652Z,29.02
2022-12-20T09:39:04.522Z,29.38
2022-12-20T09:40:10.294Z,27.20
2022-12-20T09:41:22.764Z,27.98
2022-12-20T09:42:27.948Z,31.92
2022-12-20T09:43:31.019Z,32.72
2022-12-20T09:44:39.426Z,29.63
2022-12-20T09:45:42.669Z,32.75
2022-12-20T09:46:47.672Z,28.02
2022-12-20T09:47:52.299Z,30.33
2022-12-20T09:48:55.281Z,35.35
2022-12-20T09:49:58.165Z,30.60
2022-12-20T09:51:06.549Z,33.55
2022-12-20T09:52:11.997Z,29.90
2022-12-20T09:53:27.565Z,30.80
2022-12-20T09:54:57.993Z,33.00
2022-12-20T09:56:31.719Z,20.48
2022-12-20T09:57:51.939Z,27.13
2022-12-20T09:59:05.589Z,27.00
2022-12-20T10:00:17.008Z,34.50
2022-12-20T10:01:25.715Z,32.85
2022-12-20T10:03:54.955Z,32.90
2022-12-20T10:04:58.045Z,27.48
2022-12-20T10:06:09.665Z,31.73
2022-12-20T10:07:39.156Z,29.77
2022-12-20T10:08:52.690Z,28.45
2022-12-20T10:10:04.103Z,27.92
2022-12-20T10:11:38.612Z,29.38
2022-12-20T10:13:16.009Z,26.83
2022-12-20T10:14:27.665Z,29.77
2022-12-20T10:15:39.039Z,33.85
2022-12-20T10:16:52.543Z,30.75
2022-12-20T10:18:10.534Z,30.75
2022-12-20T10:19:27.295Z,32.53
2022-12-20T10:20:41.919Z,29.27
2022-12-20T10:22:06.176Z,30.35
2022-12-20T10:23:32.707Z,26.38
2022-12-20T10:24:36.724Z,25.88
2022-12-20T10:25:40.824Z,33.53
2022-12-20T10:26:43.783Z,29.48
2022-12-20T10:27:48.318Z,32.50
2022-12-20T10:28:54.435Z,32.03
2022-12-20T10:29:57.490Z,33.22
2022-12-20T10:31:08.072Z,29.92
2022-12-20T10:32:15.690Z,30.25
2022-12-20T10:33:23.372Z,32.22
2022-12-20T10:34:28.881Z,33.35
2022-12-20T10:35:40.570Z,29.58
2022-12-20T10:36:43.474Z,28.83
2022-12-20T10:38:08.780Z,31.17
2022-12-20T10:39:12.059Z,31.33
2022-12-20T10:40:46.334Z,27.98
2022-12-20T10:41:52.142Z,35.30
2022-12-20T10:42:55.481Z,32.05
2022-12-20T10:44:28.051Z,33.53
2022-12-20T10:45:37.182Z,26.05
2022-12-20T10:46:54.120Z,28.48
2022-12-20T10:48:00.597Z,29.08
2022-12-20T10:49:21.442Z,32.42
2022-12-20T10:50:25.245Z,29.27
2022-12-20T10:51:28.087Z,29.30
2022-12-20T10:52:30.817Z,32.38
2022-12-20T10:53:34.858Z,34.60
2022-12-20T10:54:39.404Z,33.47
2022-12-20T10:55:43.140Z,32.78
2022-12-20T10:56:58.322Z,33.20
2022-12-20T10:58:07.040Z,33.03
2022-12-20T10:59:18.505Z,30.98
2022-12-20T11:00:31.929Z,31.27
2022-12-20T11:01:36.708Z,39.25
2022-12-20T11:02:42.703Z,33.20
2022-12-20T11:03:55.002Z,31.23
2022-12-20T11:05:01.035Z,33.50
2022-12-20T11:06:04.579Z,33.85
2022-12-20T11:07:26.988Z,32.20
2022-12-20T11:08:41.191Z,30.58
2022-12-20T11:09:56.846Z,32.78
2022-12-20T11:11:16.624Z,34.08
2022-12-20T11:12:19.521Z,33.10
2022-12-20T11:13:25.973Z,37.60
2022-12-20T11:14:34.619Z,31.70
2022-12-20T11:15:49.523Z,35.33
2022-12-20T11:16:54.068Z,31.48
2022-12-20T11:18:06.479Z,31.52
2022-12-20T11:19:40.010Z,36.90
2022-12-20T11:21:16.654Z,37.72
2022-12-20T11:22:21.352Z,31.00
2022-12-20T11:23:26.942Z,38.92
2022-12-20T11:24:38.850Z,34.78
2022-12-20T11:26:03.439Z,30.92
2022-12-20T11:27:25.087Z,31.77
2022-12-20T11:28:49.529Z,34.80
2022-12-20T11:30:20.276Z,35.95
2022-12-20T11:31:56.380Z,34.35
2022-12-20T11:33:25.182Z,34.47
2022-12-20T11:35:04.719Z,37.95
2022-12-20T11:36:37.752Z,32.22
2022-12-20T11:37:55.414Z,38.35
2022-12-20T11:39:17.969Z,41.47
2022-12-20T11:40:32.837Z,37.38
2022-12-20T11:41:52.390Z,32.17
2022-12-20T11:43:13.322Z,38.15
2022-12-20T11:45:40.268Z,34.53
2022-12-20T11:47:38.497Z,40.15
2022-12-20T11:48:59.979Z,36.05
2022-12-20T11:50:27.771Z,38.55
2022-12-20T11:51:42.007Z,35.97
2022-12-20T11:53:02.515Z,37.70
2022-12-20T11:54:19.597Z,38.17
2022-12-20T11:55:27.330Z,34.45
2022-12-20T11:56:44.815Z,32.17
2022-12-20T11:59:29.143Z,38.03
2022-12-20T12:00:35.417Z,41.72
2022-12-20T12:01:41.895Z,33.28
2022-12-20T12:02:54.749Z,35.47
2022-12-20T12:04:07.377Z,38.15
2022-12-20T12:05:26.970Z,38.70
2022-12-20T12:06:33.957Z,38.00
2022-12-20T12:07:40.201Z,31.92
2022-12-20T12:08:50.473Z,39.22
2022-12-20T12:10:36.432Z,33.30
2022-12-20T12:13:11.693Z,33.85
2022-12-20T12:14:18.549Z,41.08
2022-12-20T12:15:35.766Z,35.13
2022-12-20T12:16:42.554Z,37.20
2022-12-20T12:17:47.018Z,41.53
2022-12-20T12:18:50.069Z,44.58
2022-12-20T12:19:54.544Z,49.10
2022-12-20T12:21:16.157Z,81.50
2022-12-20T12:22:25.128Z,47.10
2022-12-20T12:23:49.890Z,103.28
2022-12-20T12:24:57.512Z,115.78
2022-12-20T12:26:05.073Z,74.53
2022-12-20T12:27:38.076Z,66.55
2022-12-20T12:28:40.990Z,64.72
2022-12-20T12:29:43.970Z,41.30
2022-12-20T12:30:57.644Z,47.58
2022-12-20T12:32:30.676Z,50.60
2022-12-20T12:33:41.353Z,65.72
2022-12-20T12:35:14.143Z,48.13
2022-12-20T12:36:40.584Z,45.50
2022-12-20T12:38:05.479Z,47.33
2022-12-20T12:39:46.156Z,46.35
2022-12-20T12:41:01.012Z,35.85
2022-12-20T12:42:19.394Z,40.92
2022-12-20T12:43:49.677Z,42.47
2022-12-20T12:44:58.641Z,39.42
2022-12-20T12:46:03.573Z,43.17
2022-12-20T12:47:20.183Z,44.00
2022-12-20T12:48:39.549Z,37.78
2022-12-20T12:49:43.334Z,43.28
2022-12-20T12:50:51.482Z,43.92
2022-12-20T12:51:58.395Z,37.35
2022-12-20T12:53:12.940Z,42.63
2022-12-20T12:54:43.668Z,37.25
2022-12-20T12:56:02.356Z,40.78
2022-12-20T12:57:18.867Z,43.42
2022-12-20T12:58:24.801Z,42.20
2022-12-20T12:59:33.681Z,42.85
2022-12-20T13:00:56.136Z,35.20
2022-12-20T13:02:13.891Z,39.33
2022-12-20T13:03:35.057Z,36.92
2022-12-20T13:05:07.133Z,40.22
2022-12-20T13:06:28.465Z,35.28
2022-12-20T13:07:35.180Z,37.72
2022-12-20T13:08:56.522Z,42.83
2022-12-20T13:10:00.687Z,36.47
2022-12-20T13:11:04.077Z,39.78
2022-12-20T13:12:38.765Z,40.55
2022-12-20T13:13:41.452Z,40.47
2022-12-20T13:14:45.002Z,38.08
2022-12-20T13:15:49.409Z,32.13
2022-12-20T13:17:24.076Z,39.58
2022-12-20T13:18:29.403Z,42.70
2022-12-20T13:19:36.920Z,40.25
2022-12-20T13:20:39.809Z,39.03
2022-12-20T13:21:57.390Z,37.95
2022-12-20T13:23:09.066Z,35.80
2022-12-20T13:24:38.195Z,34.97
2022-12-20T13:25:43.297Z,37.45
2022-12-20T13:26:53.573Z,40.42
2022-12-20T13:28:18.980Z,37.35
2022-12-20T13:29:28.054Z,38.72
2022-12-20T13:30:31.095Z,42.80
2022-12-20T13:31:34.112Z,36.70
2022-12-20T13:32:48.739Z,46.58
2022-12-20T13:33:54.303Z,39.10
2022-12-20T13:34:58.239Z,41.95
2022-12-20T13:36:13.779Z,39.35
2022-12-20T13:37:31.174Z,35.15
2022-12-20T13:38:50.974Z,39.72
2022-12-20T13:39:53.995Z,34.47
2022-12-20T13:41:01.014Z,39.10
2022-12-20T13:42:37.915Z,34.83
2022-12-20T13:43:46.155Z,37.40
2022-12-20T13:44:49.059Z,37.40
2022-12-20T13:45:53.749Z,38.85
2022-12-20T13:47:06.459Z,39.42
2022-12-20T13:48:15.305Z,36.75
2022-12-20T13:49:26.016Z,35.55
2022-12-20T13:50:40.599Z,39.67
2022-12-20T13:51:43.385Z,39.40
2022-12-20T13:52:46.095Z,38.83
2022-12-20T13:54:03.830Z,37.65
2022-12-20T13:55:17.506Z,42.28
2022-12-20T13:56:40.575Z,46.45
2022-12-20T13:57:46.050Z,42.08
2022-12-20T13:58:48.876Z,39.13
2022-12-20T14:00:00.043Z,40.97
2022-12-20T14:01:12.093Z,39.70
2022-12-20T14:02:30.999Z,44.83
2022-12-20T14:03:34.646Z,39.85
2022-12-20T14:04:46.217Z,41.60
2022-12-20T14:05:49.667Z,41.22
2022-12-20T14:06:54.860Z,46.45
2022-12-20T14:08:03.989Z,43.65
2022-12-20T14:09:27.565Z,42.78
2022-12-20T14:10:32.292Z,49.95
2022-12-20T14:11:46.891Z,46.30
2022-12-20T14:12:54.494Z,39.88
2022-12-20T14:14:01.931Z,46.80
2022-12-20T14:15:23.514Z,48.42
2022-12-20T14:16:28.886Z,48.25
2022-12-20T14:17:33.567Z,39.70
2022-12-20T14:18:36.264Z,44.83
2022-12-20T14:19:39.129Z,46.60
2022-12-20T14:20:41.854Z,38.72
2022-12-20T14:21:45.280Z,42.20
2022-12-20T14:23:12.890Z,50.03
2022-12-20T14:24:21.152Z,46.75
2022-12-20T14:25:35.691Z,48.97
2022-12-20T14:26:44.775Z,42.83
2022-12-20T14:27:48.264Z,43.60
2022-12-20T14:28:52.414Z,47.47
2022-12-20T14:29:55.235Z,45.33
2022-12-20T14:31:01.169Z,43.28
2022-12-20T14:32:06.000Z,42.78
2022-12-20T14:33:25.416Z,42.58
2022-12-20T14:34:32.979Z,42.45
2022-12-20T14:35:38.391Z,43.13
2022-12-20T14:36:47.644Z,40.88
2022-12-20T14:38:04.227Z,46.50
2022-12-20T14:39:28.649Z,42.08